sensor_id;sensor_type;location;lat;lon;timestamp;pressure;altitude;pressure_sealevel;temperature
68911;BMP180;55953;51.650;-0.522;2023-06-22T00:00:32;101016.40;;;17.70
68911;BMP180;55953;51.650;-0.522;2023-06-22T00:03:22;101024.60;;;17.70
68911;BMP180;55953;51.650;-0.522;2023-06-22T00:05:51;101022.20;;;17.60
68911;BMP180;55953;51.650;-0.522;2023-06-22T00:08:19;101019.60;;;17.60
68911;BMP180;55953;51.650;-0.522;2023-06-22T00:10:47;101017.60;;;17.60
68911;BMP180;55953;51.650;-0.522;2023-06-22T00:13:17;101012.00;;;17.50
68911;BMP180;55953;51.650;-0.522;2023-06-22T00:15:45;101013.40;;;17.50
68911;BMP180;55953;51.650;-0.522;2023-06-22T00:18:13;101015.40;;;17.50
68911;BMP180;55953;51.650;-0.522;2023-06-22T00:20:42;101017.80;;;17.50
68911;BMP180;55953;51.650;-0.522;2023-06-22T00:23:10;101016.80;;;17.50
68911;BMP180;55953;51.650;-0.522;2023-06-22T00:25:38;101022.20;;;17.50
68911;BMP180;55953;51.650;-0.522;2023-06-22T00:28:09;101020.40;;;17.50
68911;BMP180;55953;51.650;-0.522;2023-06-22T00:30:37;101016.00;;;17.50
68911;BMP180;55953;51.650;-0.522;2023-06-22T00:33:05;101025.20;;;17.40
68911;BMP180;55953;51.650;-0.522;2023-06-22T00:35:35;101027.80;;;17.30
68911;BMP180;55953;51.650;-0.522;2023-06-22T00:38:03;101027.60;;;17.20
68911;BMP180;55953;51.650;-0.522;2023-06-22T00:40:33;101021.40;;;17.10
68911;BMP180;55953;51.650;-0.522;2023-06-22T00:43:03;101013.40;;;17.10
68911;BMP180;55953;51.650;-0.522;2023-06-22T00:45:31;101007.00;;;17.10
68911;BMP180;55953;51.650;-0.522;2023-06-22T00:47:59;101011.80;;;17.10
68911;BMP180;55953;51.650;-0.522;2023-06-22T00:50:32;101015.20;;;17.10
68911;BMP180;55953;51.650;-0.522;2023-06-22T00:53:08;101022.60;;;17.00
68911;BMP180;55953;51.650;-0.522;2023-06-22T00:55:42;101025.00;;;16.80
68911;BMP180;55953;51.650;-0.522;2023-06-22T00:58:14;101022.60;;;16.70
68911;BMP180;55953;51.650;-0.522;2023-06-22T01:00:42;101018.00;;;16.60
68911;BMP180;55953;51.650;-0.522;2023-06-22T01:03:10;101019.00;;;16.60
68911;BMP180;55953;51.650;-0.522;2023-06-22T01:05:40;101015.60;;;16.60
68911;BMP180;55953;51.650;-0.522;2023-06-22T01:09:00;101020.60;;;16.60
68911;BMP180;55953;51.650;-0.522;2023-06-22T01:11:39;101018.40;;;16.60
68911;BMP180;55953;51.650;-0.522;2023-06-22T01:14:18;101014.60;;;16.50
68911;BMP180;55953;51.650;-0.522;2023-06-22T01:16:48;101018.20;;;16.50
68911;BMP180;55953;51.650;-0.522;2023-06-22T01:19:25;101016.40;;;16.50
68911;BMP180;55953;51.650;-0.522;2023-06-22T01:21:57;101014.40;;;16.60
68911;BMP180;55953;51.650;-0.522;2023-06-22T01:30:10;101006.60;;;16.50
68911;BMP180;55953;51.650;-0.522;2023-06-22T01:32:40;100998.40;;;16.50
68911;BMP180;55953;51.650;-0.522;2023-06-22T01:35:10;101005.20;;;16.50
68911;BMP180;55953;51.650;-0.522;2023-06-22T01:37:38;101001.00;;;16.50
68911;BMP180;55953;51.650;-0.522;2023-06-22T01:40:08;101003.60;;;16.40
68911;BMP180;55953;51.650;-0.522;2023-06-22T01:42:38;100997.20;;;16.40
68911;BMP180;55953;51.650;-0.522;2023-06-22T01:45:10;101000.20;;;16.34
68911;BMP180;55953;51.650;-0.522;2023-06-22T01:47:39;101002.40;;;16.30
68911;BMP180;55953;51.650;-0.522;2023-06-22T01:50:10;101005.40;;;16.20
68911;BMP180;55953;51.650;-0.522;2023-06-22T01:52:39;101000.20;;;16.16
68911;BMP180;55953;51.650;-0.522;2023-06-22T01:55:07;101001.20;;;16.10
68911;BMP180;55953;51.650;-0.522;2023-06-22T01:57:36;101007.80;;;16.10
68911;BMP180;55953;51.650;-0.522;2023-06-22T02:00:16;101012.00;;;16.02
68911;BMP180;55953;51.650;-0.522;2023-06-22T02:02:59;101010.20;;;16.00
68911;BMP180;55953;51.650;-0.522;2023-06-22T02:05:34;101010.20;;;16.00
68911;BMP180;55953;51.650;-0.522;2023-06-22T02:08:28;101008.20;;;16.00
68911;BMP180;55953;51.650;-0.522;2023-06-22T02:11:02;101009.80;;;16.00
68911;BMP180;55953;51.650;-0.522;2023-06-22T02:13:30;101013.20;;;16.00
68911;BMP180;55953;51.650;-0.522;2023-06-22T02:16:00;101006.60;;;15.90
68911;BMP180;55953;51.650;-0.522;2023-06-22T02:18:29;101004.20;;;15.90
68911;BMP180;55953;51.650;-0.522;2023-06-22T02:20:56;101008.00;;;15.80
68911;BMP180;55953;51.650;-0.522;2023-06-22T02:23:24;101008.20;;;15.80
68911;BMP180;55953;51.650;-0.522;2023-06-22T02:25:52;101011.20;;;15.74
68911;BMP180;55953;51.650;-0.522;2023-06-22T02:28:20;101011.80;;;15.80
68911;BMP180;55953;51.650;-0.522;2023-06-22T02:30:48;101010.80;;;15.80
68911;BMP180;55953;51.650;-0.522;2023-06-22T02:33:16;101010.60;;;15.80
68911;BMP180;55953;51.650;-0.522;2023-06-22T02:35:46;101013.60;;;15.70
68911;BMP180;55953;51.650;-0.522;2023-06-22T02:38:16;101016.60;;;15.64
68911;BMP180;55953;51.650;-0.522;2023-06-22T02:40:46;101017.40;;;15.60
68911;BMP180;55953;51.650;-0.522;2023-06-22T02:43:14;101019.60;;;15.70
68911;BMP180;55953;51.650;-0.522;2023-06-22T02:45:43;101016.00;;;15.68
68911;BMP180;55953;51.650;-0.522;2023-06-22T02:48:11;101019.40;;;15.60
68911;BMP180;55953;51.650;-0.522;2023-06-22T02:50:39;101017.20;;;15.50
68911;BMP180;55953;51.650;-0.522;2023-06-22T02:53:07;101013.00;;;15.40
68911;BMP180;55953;51.650;-0.522;2023-06-22T02:55:37;101006.40;;;15.50
68911;BMP180;55953;51.650;-0.522;2023-06-22T02:58:07;101005.00;;;15.40
68911;BMP180;55953;51.650;-0.522;2023-06-22T03:00:37;100999.80;;;15.40
68911;BMP180;55953;51.650;-0.522;2023-06-22T03:03:07;100996.60;;;15.32
68911;BMP180;55953;51.650;-0.522;2023-06-22T03:05:35;100998.00;;;15.30
68911;BMP180;55953;51.650;-0.522;2023-06-22T03:08:03;100999.60;;;15.20
68911;BMP180;55953;51.650;-0.522;2023-06-22T03:10:33;101000.00;;;15.20
68911;BMP180;55953;51.650;-0.522;2023-06-22T03:13:01;101002.60;;;15.20
68911;BMP180;55953;51.650;-0.522;2023-06-22T03:15:29;100998.60;;;15.10
68911;BMP180;55953;51.650;-0.522;2023-06-22T03:17:57;100991.60;;;15.10
68911;BMP180;55953;51.650;-0.522;2023-06-22T03:20:25;100997.80;;;15.16
68911;BMP180;55953;51.650;-0.522;2023-06-22T03:22:55;100994.40;;;15.20
68911;BMP180;55953;51.650;-0.522;2023-06-22T03:25:23;101000.80;;;15.20
68911;BMP180;55953;51.650;-0.522;2023-06-22T03:27:51;101004.80;;;15.10
68911;BMP180;55953;51.650;-0.522;2023-06-22T03:30:19;101000.20;;;15.10
68911;BMP180;55953;51.650;-0.522;2023-06-22T03:32:47;101004.80;;;15.02
68911;BMP180;55953;51.650;-0.522;2023-06-22T03:35:15;100995.20;;;15.10
68911;BMP180;55953;51.650;-0.522;2023-06-22T03:37:43;100996.00;;;15.10
68911;BMP180;55953;51.650;-0.522;2023-06-22T03:40:11;100994.80;;;15.12
68911;BMP180;55953;51.650;-0.522;2023-06-22T03:42:40;100991.40;;;15.10
68911;BMP180;55953;51.650;-0.522;2023-06-22T03:45:10;100987.20;;;15.00
68911;BMP180;55953;51.650;-0.522;2023-06-22T03:47:38;100987.80;;;14.90
68911;BMP180;55953;51.650;-0.522;2023-06-22T03:50:06;100984.80;;;14.90
68911;BMP180;55953;51.650;-0.522;2023-06-22T03:52:34;100977.80;;;14.90
68911;BMP180;55953;51.650;-0.522;2023-06-22T03:55:02;100975.40;;;14.90
68911;BMP180;55953;51.650;-0.522;2023-06-22T03:57:30;100976.20;;;14.90
68911;BMP180;55953;51.650;-0.522;2023-06-22T03:59:59;100973.00;;;14.90
68911;BMP180;55953;51.650;-0.522;2023-06-22T04:02:27;100975.60;;;14.94
68911;BMP180;55953;51.650;-0.522;2023-06-22T04:04:54;100971.20;;;15.00
68911;BMP180;55953;51.650;-0.522;2023-06-22T04:07:23;100966.80;;;15.00
68911;BMP180;55953;51.650;-0.522;2023-06-22T04:09:51;100972.80;;;15.08
68911;BMP180;55953;51.650;-0.522;2023-06-22T04:12:18;100968.60;;;15.00
68911;BMP180;55953;51.650;-0.522;2023-06-22T04:14:46;100978.20;;;15.00
68911;BMP180;55953;51.650;-0.522;2023-06-22T04:17:14;100974.80;;;15.02
68911;BMP180;55953;51.650;-0.522;2023-06-22T04:19:42;100976.20;;;15.10
68911;BMP180;55953;51.650;-0.522;2023-06-22T04:22:10;100978.00;;;15.12
68911;BMP180;55953;51.650;-0.522;2023-06-22T04:24:39;100982.60;;;15.10
68911;BMP180;55953;51.650;-0.522;2023-06-22T04:27:07;100981.20;;;15.10
68911;BMP180;55953;51.650;-0.522;2023-06-22T04:29:35;100979.20;;;15.20
68911;BMP180;55953;51.650;-0.522;2023-06-22T04:32:03;100978.00;;;15.30
68911;BMP180;55953;51.650;-0.522;2023-06-22T04:34:33;100978.00;;;15.40
68911;BMP180;55953;51.650;-0.522;2023-06-22T04:37:01;100980.00;;;15.30
68911;BMP180;55953;51.650;-0.522;2023-06-22T04:39:29;100979.00;;;15.30
68911;BMP180;55953;51.650;-0.522;2023-06-22T04:41:57;100982.40;;;15.40
68911;BMP180;55953;51.650;-0.522;2023-06-22T04:44:28;100979.20;;;15.50
68911;BMP180;55953;51.650;-0.522;2023-06-22T04:47:01;100980.20;;;15.60
68911;BMP180;55953;51.650;-0.522;2023-06-22T04:49:31;100983.80;;;15.70
68911;BMP180;55953;51.650;-0.522;2023-06-22T04:52:06;100985.40;;;15.68
68911;BMP180;55953;51.650;-0.522;2023-06-22T04:54:36;100990.20;;;15.70
68911;BMP180;55953;51.650;-0.522;2023-06-22T04:57:07;100986.60;;;15.70
68911;BMP180;55953;51.650;-0.522;2023-06-22T04:59:38;100990.00;;;15.80
68911;BMP180;55953;51.650;-0.522;2023-06-22T05:02:07;100991.20;;;15.90
68911;BMP180;55953;51.650;-0.522;2023-06-22T05:04:35;100989.60;;;15.98
68911;BMP180;55953;51.650;-0.522;2023-06-22T05:07:07;100987.00;;;16.00
68911;BMP180;55953;51.650;-0.522;2023-06-22T05:09:35;100985.40;;;16.10
68911;BMP180;55953;51.650;-0.522;2023-06-22T05:12:03;100988.40;;;16.14
68911;BMP180;55953;51.650;-0.522;2023-06-22T05:14:34;100996.60;;;16.20
68911;BMP180;55953;51.650;-0.522;2023-06-22T05:17:02;100988.00;;;16.10
68911;BMP180;55953;51.650;-0.522;2023-06-22T05:19:32;100987.00;;;16.04
68911;BMP180;55953;51.650;-0.522;2023-06-22T05:22:02;100992.80;;;16.00
68911;BMP180;55953;51.650;-0.522;2023-06-22T05:24:30;100993.00;;;15.94
68911;BMP180;55953;51.650;-0.522;2023-06-22T05:26:58;100998.00;;;15.94
68911;BMP180;55953;51.650;-0.522;2023-06-22T05:29:25;101000.60;;;16.08
68911;BMP180;55953;51.650;-0.522;2023-06-22T05:31:54;101003.00;;;16.20
68911;BMP180;55953;51.650;-0.522;2023-06-22T05:34:22;100997.60;;;16.40
68911;BMP180;55953;51.650;-0.522;2023-06-22T05:36:50;100998.80;;;16.58
68911;BMP180;55953;51.650;-0.522;2023-06-22T05:39:17;101001.00;;;16.80
68911;BMP180;55953;51.650;-0.522;2023-06-22T05:41:46;101004.60;;;17.00
68911;BMP180;55953;51.650;-0.522;2023-06-22T05:44:15;101006.60;;;17.00
68911;BMP180;55953;51.650;-0.522;2023-06-22T05:46:44;101010.80;;;17.02
68911;BMP180;55953;51.650;-0.522;2023-06-22T05:49:14;101016.00;;;17.10
68911;BMP180;55953;51.650;-0.522;2023-06-22T05:51:42;101018.20;;;17.20
68911;BMP180;55953;51.650;-0.522;2023-06-22T05:54:10;101018.60;;;17.30
68911;BMP180;55953;51.650;-0.522;2023-06-22T05:56:41;101015.40;;;17.40
68911;BMP180;55953;51.650;-0.522;2023-06-22T05:59:08;101014.80;;;17.60
68911;BMP180;55953;51.650;-0.522;2023-06-22T06:01:36;101018.00;;;17.64
68911;BMP180;55953;51.650;-0.522;2023-06-22T06:04:05;101017.80;;;17.70
68911;BMP180;55953;51.650;-0.522;2023-06-22T06:06:33;101014.80;;;17.80
68911;BMP180;55953;51.650;-0.522;2023-06-22T06:09:04;101002.60;;;17.90
68911;BMP180;55953;51.650;-0.522;2023-06-22T06:11:32;101000.60;;;18.00
68911;BMP180;55953;51.650;-0.522;2023-06-22T06:14:00;101000.00;;;18.20
68911;BMP180;55953;51.650;-0.522;2023-06-22T06:16:28;101002.80;;;18.30
68911;BMP180;55953;51.650;-0.522;2023-06-22T06:18:56;101002.00;;;18.38
68911;BMP180;55953;51.650;-0.522;2023-06-22T06:21:26;101003.00;;;18.30
68911;BMP180;55953;51.650;-0.522;2023-06-22T06:23:57;101001.00;;;18.32
68911;BMP180;55953;51.650;-0.522;2023-06-22T06:26:26;101000.60;;;18.40
68911;BMP180;55953;51.650;-0.522;2023-06-22T06:28:57;101001.80;;;18.50
68911;BMP180;55953;51.650;-0.522;2023-06-22T06:31:26;101010.80;;;18.58
68911;BMP180;55953;51.650;-0.522;2023-06-22T06:33:57;101006.00;;;18.52
68911;BMP180;55953;51.650;-0.522;2023-06-22T06:36:27;101003.00;;;18.60
68911;BMP180;55953;51.650;-0.522;2023-06-22T06:38:54;100996.60;;;18.62
68911;BMP180;55953;51.650;-0.522;2023-06-22T06:41:22;100994.00;;;18.70
68911;BMP180;55953;51.650;-0.522;2023-06-22T06:43:50;100992.40;;;18.72
68911;BMP180;55953;51.650;-0.522;2023-06-22T06:46:19;100996.80;;;18.80
68911;BMP180;55953;51.650;-0.522;2023-06-22T06:48:47;100993.00;;;18.90
68911;BMP180;55953;51.650;-0.522;2023-06-22T06:51:16;100995.00;;;18.90
68911;BMP180;55953;51.650;-0.522;2023-06-22T06:53:44;100989.40;;;18.96
68911;BMP180;55953;51.650;-0.522;2023-06-22T06:56:11;100985.20;;;19.10
68911;BMP180;55953;51.650;-0.522;2023-06-22T06:58:41;100987.00;;;19.12
68911;BMP180;55953;51.650;-0.522;2023-06-22T07:01:13;100985.40;;;19.20
68911;BMP180;55953;51.650;-0.522;2023-06-22T07:03:41;100983.60;;;19.30
68911;BMP180;55953;51.650;-0.522;2023-06-22T07:06:09;100984.20;;;19.40
68911;BMP180;55953;51.650;-0.522;2023-06-22T07:08:37;100981.20;;;19.50
68911;BMP180;55953;51.650;-0.522;2023-06-22T07:11:07;100978.80;;;19.70
68911;BMP180;55953;51.650;-0.522;2023-06-22T07:13:35;100979.40;;;19.78
68911;BMP180;55953;51.650;-0.522;2023-06-22T07:16:03;100982.40;;;19.80
68911;BMP180;55953;51.650;-0.522;2023-06-22T07:18:31;100980.20;;;19.90
68911;BMP180;55953;51.650;-0.522;2023-06-22T07:20:59;100975.80;;;19.90
68911;BMP180;55953;51.650;-0.522;2023-06-22T07:23:27;100982.00;;;20.10
68911;BMP180;55953;51.650;-0.522;2023-06-22T07:25:55;100979.40;;;20.30
68911;BMP180;55953;51.650;-0.522;2023-06-22T07:28:23;100984.40;;;20.40
68911;BMP180;55953;51.650;-0.522;2023-06-22T07:30:51;100980.60;;;20.60
68911;BMP180;55953;51.650;-0.522;2023-06-22T07:33:19;100972.20;;;20.70
68911;BMP180;55953;51.650;-0.522;2023-06-22T07:35:47;100979.60;;;20.80
68911;BMP180;55953;51.650;-0.522;2023-06-22T07:38:16;100981.20;;;20.80
68911;BMP180;55953;51.650;-0.522;2023-06-22T07:40:45;100982.40;;;20.90
68911;BMP180;55953;51.650;-0.522;2023-06-22T07:43:13;100983.80;;;21.00
68911;BMP180;55953;51.650;-0.522;2023-06-22T07:45:49;100983.80;;;21.10
68911;BMP180;55953;51.650;-0.522;2023-06-22T07:48:21;100982.80;;;21.20
68911;BMP180;55953;51.650;-0.522;2023-06-22T07:50:50;100980.20;;;21.30
68911;BMP180;55953;51.650;-0.522;2023-06-22T07:53:17;100979.20;;;21.40
68911;BMP180;55953;51.650;-0.522;2023-06-22T07:55:45;100978.60;;;21.50
68911;BMP180;55953;51.650;-0.522;2023-06-22T07:58:16;100980.20;;;21.60
68911;BMP180;55953;51.650;-0.522;2023-06-22T08:00:46;100977.00;;;21.80
68911;BMP180;55953;51.650;-0.522;2023-06-22T08:03:15;100977.40;;;21.90
68911;BMP180;55953;51.650;-0.522;2023-06-22T08:05:43;100976.00;;;21.90
68911;BMP180;55953;51.650;-0.522;2023-06-22T08:08:11;100971.40;;;22.08
68911;BMP180;55953;51.650;-0.522;2023-06-22T08:10:39;100967.00;;;22.32
68911;BMP180;55953;51.650;-0.522;2023-06-22T08:13:09;100968.00;;;22.78
68911;BMP180;55953;51.650;-0.522;2023-06-22T08:15:37;100970.60;;;23.10
68911;BMP180;55953;51.650;-0.522;2023-06-22T08:18:05;100958.20;;;23.42
68911;BMP180;55953;51.650;-0.522;2023-06-22T08:20:33;100958.40;;;23.90
68911;BMP180;55953;51.650;-0.522;2023-06-22T08:23:01;100954.80;;;24.10
68911;BMP180;55953;51.650;-0.522;2023-06-22T08:25:34;100962.80;;;24.30
68911;BMP180;55953;51.650;-0.522;2023-06-22T08:28:03;100963.60;;;24.48
68911;BMP180;55953;51.650;-0.522;2023-06-22T08:30:31;100957.40;;;24.50
68911;BMP180;55953;51.650;-0.522;2023-06-22T08:32:59;100956.40;;;24.60
68911;BMP180;55953;51.650;-0.522;2023-06-22T08:35:27;100958.20;;;24.70
68911;BMP180;55953;51.650;-0.522;2023-06-22T08:37:57;100953.80;;;24.60
68911;BMP180;55953;51.650;-0.522;2023-06-22T08:40:25;100952.00;;;24.50
68911;BMP180;55953;51.650;-0.522;2023-06-22T08:42:53;100947.80;;;24.50
68911;BMP180;55953;51.650;-0.522;2023-06-22T08:45:21;100949.00;;;24.58
68911;BMP180;55953;51.650;-0.522;2023-06-22T08:47:49;100949.00;;;24.40
68911;BMP180;55953;51.650;-0.522;2023-06-22T08:50:17;100953.40;;;24.50
68911;BMP180;55953;51.650;-0.522;2023-06-22T08:52:45;100954.20;;;24.50
68911;BMP180;55953;51.650;-0.522;2023-06-22T08:55:14;100958.00;;;24.40
68911;BMP180;55953;51.650;-0.522;2023-06-22T08:57:42;100964.60;;;24.32
68911;BMP180;55953;51.650;-0.522;2023-06-22T09:00:12;100963.80;;;24.40
68911;BMP180;55953;51.650;-0.522;2023-06-22T09:02:47;100965.80;;;24.40
68911;BMP180;55953;51.650;-0.522;2023-06-22T09:05:15;100970.60;;;24.30
68911;BMP180;55953;51.650;-0.522;2023-06-22T09:07:44;100965.40;;;24.20
68911;BMP180;55953;51.650;-0.522;2023-06-22T09:10:12;100965.60;;;24.20
68911;BMP180;55953;51.650;-0.522;2023-06-22T09:12:39;100969.20;;;24.20
68911;BMP180;55953;51.650;-0.522;2023-06-22T09:15:08;100965.00;;;24.30
68911;BMP180;55953;51.650;-0.522;2023-06-22T09:17:43;100967.00;;;24.44
68911;BMP180;55953;51.650;-0.522;2023-06-22T09:20:11;100967.80;;;24.60
68911;BMP180;55953;51.650;-0.522;2023-06-22T09:22:41;100973.20;;;24.60
68911;BMP180;55953;51.650;-0.522;2023-06-22T09:25:09;100966.80;;;24.60
68911;BMP180;55953;51.650;-0.522;2023-06-22T09:27:37;100971.00;;;24.60
68911;BMP180;55953;51.650;-0.522;2023-06-22T09:30:06;100978.00;;;24.64
68911;BMP180;55953;51.650;-0.522;2023-06-22T09:32:34;100971.60;;;24.50
68911;BMP180;55953;51.650;-0.522;2023-06-22T09:35:04;100979.20;;;24.48
68911;BMP180;55953;51.650;-0.522;2023-06-22T09:37:37;100977.00;;;24.30
68911;BMP180;55953;51.650;-0.522;2023-06-22T09:40:07;100977.40;;;24.20
68911;BMP180;55953;51.650;-0.522;2023-06-22T09:42:41;100979.00;;;24.30
68911;BMP180;55953;51.650;-0.522;2023-06-22T09:45:09;100978.60;;;24.30
68911;BMP180;55953;51.650;-0.522;2023-06-22T09:47:37;100977.80;;;24.20
68911;BMP180;55953;51.650;-0.522;2023-06-22T09:50:06;100977.20;;;24.20
68911;BMP180;55953;51.650;-0.522;2023-06-22T09:52:34;100978.20;;;24.30
68911;BMP180;55953;51.650;-0.522;2023-06-22T09:55:15;100981.40;;;24.46
68911;BMP180;55953;51.650;-0.522;2023-06-22T09:57:44;100980.40;;;24.76
68911;BMP180;55953;51.650;-0.522;2023-06-22T10:00:12;100978.60;;;25.00
68911;BMP180;55953;51.650;-0.522;2023-06-22T10:02:41;100983.80;;;25.30
68911;BMP180;55953;51.650;-0.522;2023-06-22T10:05:09;100981.40;;;25.20
68911;BMP180;55953;51.650;-0.522;2023-06-22T10:07:38;100983.80;;;25.04
68911;BMP180;55953;51.650;-0.522;2023-06-22T10:10:11;100983.60;;;24.90
68911;BMP180;55953;51.650;-0.522;2023-06-22T10:12:47;100985.80;;;24.90
68911;BMP180;55953;51.650;-0.522;2023-06-22T10:15:15;100980.80;;;25.00
68911;BMP180;55953;51.650;-0.522;2023-06-22T10:17:44;100979.80;;;25.10
68911;BMP180;55953;51.650;-0.522;2023-06-22T10:20:12;100974.00;;;25.10
68911;BMP180;55953;51.650;-0.522;2023-06-22T10:22:43;100969.60;;;25.00
68911;BMP180;55953;51.650;-0.522;2023-06-22T10:25:13;100966.20;;;25.10
68911;BMP180;55953;51.650;-0.522;2023-06-22T10:27:41;100966.20;;;25.40
68911;BMP180;55953;51.650;-0.522;2023-06-22T10:30:11;100970.40;;;25.66
68911;BMP180;55953;51.650;-0.522;2023-06-22T10:32:43;100971.40;;;25.72
68911;BMP180;55953;51.650;-0.522;2023-06-22T10:35:11;100964.20;;;25.70
68911;BMP180;55953;51.650;-0.522;2023-06-22T10:37:44;100969.00;;;25.80
68911;BMP180;55953;51.650;-0.522;2023-06-22T10:40:16;100960.60;;;25.80
68911;BMP180;55953;51.650;-0.522;2023-06-22T10:42:45;100957.40;;;26.00
68911;BMP180;55953;51.650;-0.522;2023-06-22T10:45:13;100958.40;;;26.20
68911;BMP180;55953;51.650;-0.522;2023-06-22T10:47:41;100967.20;;;26.30
68911;BMP180;55953;51.650;-0.522;2023-06-22T10:50:11;100963.80;;;26.30
68911;BMP180;55953;51.650;-0.522;2023-06-22T10:52:40;100967.20;;;26.36
68911;BMP180;55953;51.650;-0.522;2023-06-22T10:55:10;100973.40;;;26.20
68911;BMP180;55953;51.650;-0.522;2023-06-22T10:57:38;100976.60;;;26.04
68911;BMP180;55953;51.650;-0.522;2023-06-22T11:00:11;100976.60;;;25.90
68911;BMP180;55953;51.650;-0.522;2023-06-22T11:02:39;100979.80;;;25.86
68911;BMP180;55953;51.650;-0.522;2023-06-22T11:05:08;100980.40;;;25.72
68911;BMP180;55953;51.650;-0.522;2023-06-22T11:07:38;100980.60;;;25.70
68911;BMP180;55953;51.650;-0.522;2023-06-22T11:10:13;100982.80;;;25.80
68911;BMP180;55953;51.650;-0.522;2023-06-22T11:12:41;100978.60;;;25.70
68911;BMP180;55953;51.650;-0.522;2023-06-22T11:15:10;100985.40;;;25.70
68911;BMP180;55953;51.650;-0.522;2023-06-22T11:17:38;100977.20;;;25.80
68911;BMP180;55953;51.650;-0.522;2023-06-22T11:20:07;100970.20;;;25.70
68911;BMP180;55953;51.650;-0.522;2023-06-22T11:22:40;100969.80;;;25.74
68911;BMP180;55953;51.650;-0.522;2023-06-22T11:25:09;100972.60;;;25.90
68911;BMP180;55953;51.650;-0.522;2023-06-22T11:27:39;100969.00;;;26.12
68911;BMP180;55953;51.650;-0.522;2023-06-22T11:30:08;100969.80;;;26.34
68911;BMP180;55953;51.650;-0.522;2023-06-22T11:32:36;100971.20;;;26.50
68911;BMP180;55953;51.650;-0.522;2023-06-22T11:35:04;100964.80;;;26.70
68911;BMP180;55953;51.650;-0.522;2023-06-22T11:37:32;100958.00;;;26.80
68911;BMP180;55953;51.650;-0.522;2023-06-22T11:40:00;100965.60;;;26.80
68911;BMP180;55953;51.650;-0.522;2023-06-22T11:42:32;100963.60;;;26.74
68911;BMP180;55953;51.650;-0.522;2023-06-22T11:45:00;100969.00;;;26.70
68911;BMP180;55953;51.650;-0.522;2023-06-22T11:47:29;100962.80;;;26.60
68911;BMP180;55953;51.650;-0.522;2023-06-22T11:49:57;100960.40;;;26.54
68911;BMP180;55953;51.650;-0.522;2023-06-22T11:52:25;100954.80;;;26.58
68911;BMP180;55953;51.650;-0.522;2023-06-22T11:54:55;100954.80;;;26.50
68911;BMP180;55953;51.650;-0.522;2023-06-22T11:57:23;100961.20;;;26.50
68911;BMP180;55953;51.650;-0.522;2023-06-22T11:59:51;100957.20;;;26.50
68911;BMP180;55953;51.650;-0.522;2023-06-22T12:02:18;100956.60;;;26.70
68911;BMP180;55953;51.650;-0.522;2023-06-22T12:04:46;100953.60;;;26.96
68911;BMP180;55953;51.650;-0.522;2023-06-22T12:07:14;100964.80;;;27.00
68911;BMP180;55953;51.650;-0.522;2023-06-22T12:09:42;100961.00;;;26.90
68911;BMP180;55953;51.650;-0.522;2023-06-22T12:12:10;100963.60;;;26.90
68911;BMP180;55953;51.650;-0.522;2023-06-22T12:14:37;100962.20;;;27.08
68911;BMP180;55953;51.650;-0.522;2023-06-22T12:17:05;100956.60;;;27.20
68911;BMP180;55953;51.650;-0.522;2023-06-22T12:19:33;100952.80;;;27.20
68911;BMP180;55953;51.650;-0.522;2023-06-22T12:22:01;100948.40;;;27.30
68911;BMP180;55953;51.650;-0.522;2023-06-22T12:24:29;100951.60;;;27.40
68911;BMP180;55953;51.650;-0.522;2023-06-22T12:26:56;100949.60;;;27.54
68911;BMP180;55953;51.650;-0.522;2023-06-22T12:29:24;100944.60;;;27.54
68911;BMP180;55953;51.650;-0.522;2023-06-22T12:31:52;100942.00;;;27.70
68911;BMP180;55953;51.650;-0.522;2023-06-22T12:34:20;100937.20;;;27.90
68911;BMP180;55953;51.650;-0.522;2023-06-22T12:36:48;100941.60;;;28.10
68911;BMP180;55953;51.650;-0.522;2023-06-22T12:39:16;100940.00;;;28.30
68911;BMP180;55953;51.650;-0.522;2023-06-22T12:41:44;100936.20;;;28.50
68911;BMP180;55953;51.650;-0.522;2023-06-22T12:44:12;100934.00;;;28.50
68911;BMP180;55953;51.650;-0.522;2023-06-22T12:46:40;100936.60;;;28.40
68911;BMP180;55953;51.650;-0.522;2023-06-22T12:49:08;100928.00;;;28.50
68911;BMP180;55953;51.650;-0.522;2023-06-22T12:51:40;100922.60;;;28.50
68911;BMP180;55953;51.650;-0.522;2023-06-22T12:54:10;100919.60;;;28.42
68911;BMP180;55953;51.650;-0.522;2023-06-22T12:56:38;100925.20;;;28.50
68911;BMP180;55953;51.650;-0.522;2023-06-22T12:59:06;100922.60;;;28.60
68911;BMP180;55953;51.650;-0.522;2023-06-22T13:01:34;100923.40;;;28.30
68911;BMP180;55953;51.650;-0.522;2023-06-22T13:04:02;100925.20;;;28.10
68911;BMP180;55953;51.650;-0.522;2023-06-22T13:06:29;100921.20;;;28.18
68911;BMP180;55953;51.650;-0.522;2023-06-22T13:08:57;100921.80;;;28.30
68911;BMP180;55953;51.650;-0.522;2023-06-22T13:11:45;100918.60;;;28.50
68911;BMP180;55953;51.650;-0.522;2023-06-22T13:14:13;100922.80;;;28.70
68911;BMP180;55953;51.650;-0.522;2023-06-22T13:16:43;100924.00;;;28.60
68911;BMP180;55953;51.650;-0.522;2023-06-22T13:19:11;100924.00;;;28.32
68911;BMP180;55953;51.650;-0.522;2023-06-22T13:21:39;100915.20;;;28.12
68911;BMP180;55953;51.650;-0.522;2023-06-22T13:24:07;100912.80;;;27.92
68911;BMP180;55953;51.650;-0.522;2023-06-22T13:26:35;100913.20;;;27.64
68911;BMP180;55953;51.650;-0.522;2023-06-22T13:29:04;100918.20;;;27.48
68911;BMP180;55953;51.650;-0.522;2023-06-22T13:31:32;100915.00;;;27.50
68911;BMP180;55953;51.650;-0.522;2023-06-22T13:34:00;100906.40;;;27.70
68911;BMP180;55953;51.650;-0.522;2023-06-22T13:36:27;100903.60;;;27.98
68911;BMP180;55953;51.650;-0.522;2023-06-22T13:38:58;100908.60;;;28.20
68911;BMP180;55953;51.650;-0.522;2023-06-22T13:41:26;100911.40;;;28.40
68911;BMP180;55953;51.650;-0.522;2023-06-22T13:43:54;100908.40;;;28.54
68911;BMP180;55953;51.650;-0.522;2023-06-22T13:46:22;100904.80;;;28.74
68911;BMP180;55953;51.650;-0.522;2023-06-22T13:48:50;100913.20;;;28.90
68911;BMP180;55953;51.650;-0.522;2023-06-22T13:51:20;100913.00;;;28.60
68911;BMP180;55953;51.650;-0.522;2023-06-22T13:53:48;100914.80;;;28.32
68911;BMP180;55953;51.650;-0.522;2023-06-22T13:56:16;100908.40;;;28.54
68911;BMP180;55953;51.650;-0.522;2023-06-22T13:58:43;100906.40;;;28.82
68911;BMP180;55953;51.650;-0.522;2023-06-22T14:01:11;100911.80;;;29.10